x

South Santa Rosa Is. Ca (46069) Wave Buoy

12:50 - Mon 26th Jun 2017 All times are PDT. -7 hours from GMT.

  • Sig Wave height 5.9ft
  • Swell Direction
  • Peak Period 6s
  • Average Period 5s
  • Wind
    25mph, 29mph gusts
  • Sea Temp 57°f
  • Ar Temp 57°f
  • Sea Pressure 1012.9mb
  • South Santa Rosa Is. Ca
  • South Santa Rosa Is. Ca

More Historic Weather Station data

Upgrade to MSW Pro to gain access to the past 30 days of data for over 8000 Wavebouys and Weather Stations around the globe.

Join Pro

Comparision Forecast

View Surf forecast
   
Seg 06/26 12:50 6ft 6s 5s 25 29 mph 1012.9mb 57f 57f
Dom 06/25 11:50 6ft 6s 5s 22 27 mph 1013.5mb 56f 57f
10:50 6ft 7s 5s 20 25 mph 1013.7mb 56f 57f
9:50 6.5ft 7s 6s 22 29 mph 1013.3mb 56f 57f
8:50 6ft 6s 5s 25 29 mph 1013mb 56f 56f
7:50 6ft 6s 6s 25 31 mph 1012.7mb 56f 57f
6:50 6ft 7s 6s 27 34 mph 1012.5mb 56f 57f
5:50 6ft 6s 5s 25 29 mph 1012.7mb 56f 57f
4:50 6.5ft 7s 6s 25 29 mph 1013mb 56f 57f
3:50 6.5ft 7s 6s 27 31 mph 1013.1mb 56f 57f
2:50 6.5ft 6s 6s 25 31 mph 1013.4mb 56f 57f
1:50 6.5ft 7s 6s 27 31 mph 1013.9mb 56f 57f
12:50 6ft 7s 5s 25 27 mph 1014mb 56f 56f
11:50 6ft 13s 6s 20 25 mph 1014.3mb 56f 56f
10:50 7ft 14s 6s 25 29 mph 1013.8mb 56f 56f
9:50 6ft 6s 6s 25 29 mph 1013.5mb 56f 55f
8:50 6.5ft 6s 6s 22 29 mph 1013.5mb 56f 55f
7:50 7ft 6s 6s 25 29 mph 1013.2mb 56f 55f
6:50 7ft 7s 6s 25 31 mph 1012.6mb 56f 56f
5:50 7ft 7s 6s 27 31 mph 1012mb 56f 56f
4:50 8ft 7s 6s 22 29 mph 1011.7mb 56f 56f
3:50 7ft 7s 6s 27 31 mph 1011.3mb 56f 56f
2:50 7.5ft 6s 6s 25 34 mph 1011.1mb 55f 56f
1:50 7ft 6s 6s 27 31 mph 1011mb 56f 56f
12:50 7.5ft 6s 6s 29 34 mph 1011.1mb 56f 57f
Sáb 06/24 11:50 7.5ft 6s 6s 27 31 mph 1011.5mb 56f 57f
10:50 6.5ft 14s 6s 25 31 mph 1011.7mb 57f 57f
9:50 6ft 6s 6s 25 31 mph 1011.5mb 57f 57f
8:50 7ft 6s 6s 27 31 mph 1011.4mb 57f 58f
7:50 6.5ft 15s 6s 27 31 mph 1011.6mb 58f 58f
6:50 6ft 14s 6s 27 31 mph 1011.5mb 58f 58f
5:50 6ft 14s 6s 27 29 mph 1011.8mb 59f 59f
4:50 6ft 15s 6s 25 29 mph 1012.4mb 60f 59f
3:50 6ft 14s 6s 20 27 mph 1012.9mb 60f 59f
2:50 6ft 16s 6s 25 29 mph 1013.1mb 60f 59f
1:50 6ft 14s 6s 22 27 mph 1013.4mb 60f 59f
12:50 6ft 15s 5s 22 27 mph 1013.5mb 59f 59f
11:50 5.5ft 14s 6s 22 27 mph 1013.5mb 59f 59f
10:50 6ft 13s 6s 22 25 mph 1013.5mb 59f 59f
9:50 6.5ft 15s 6s 22 27 mph 1013.2mb 59f 58f
8:50 6ft 15s 6s 20 25 mph 1013.3mb 59f 58f
7:50 6ft 15s 6s 25 29 mph 1012.6mb 59f 58f
6:50 6ft 15s 6s 25 29 mph 1012.5mb 59f 58f
5:50 6ft 15s 6s 25 29 mph 1012.1mb 59f 58f
4:50 6ft 15s 7s 20 25 mph 1012.5mb 59f 58f
3:50 6ft 15s 7s 18 22 mph 1012.7mb 60f 59f
2:50 5.5ft 14s 7s 18 22 mph 1012.8mb 60f 59f
1:50 6ft 15s 7s 18 22 mph 1013.3mb 60f 59f
12:50 5.5ft 16s 7s 16 18 mph 1013.6mb 60f 59f
Sex 06/23 11:50 5ft 15s 7s 16 20 mph 1013.6mb 60f 59f
10:50 5ft 16s 7s 16 18 mph 1013.2mb 60f 59f
9:50 5.5ft 15s 8s 11 16 mph 1013.4mb 60f 59f
8:50 6ft 15s 9s 16 18 mph 1012.9mb 61f 60f
7:50 5.5ft 14s 9s 16 18 mph 1012.9mb 61f 60f
6:50 5ft 15s 9s 13 16 mph 1013.2mb 61f 59f
5:50 5ft 15s 9s 13 16 mph 1013.2mb 61f 59f
4:50 5ft 15s 9s 11 13 mph 1013.5mb 61f 59f
3:50 6ft 16s 10s 9 11 mph 1013.6mb 61f 59f
2:50 5.5ft 15s 9s 9 11 mph 1013.6mb 61f 59f
1:50 5.5ft 15s 10s 7 9 mph 1014mb 61f 59f
12:50 6ft 15s 9s 4 7 mph 1014mb 61f 58f
11:50 6ft 15s 9s 4 7 mph 1014.1mb 61f 58f
10:50 6ft 10s 9s 4 7 mph 1013.7mb 61f 58f
9:50 6ft 15s 9s 4 7 mph 1013.1mb 60f 57f
8:50 6.5ft 16s 9s 4 7 mph 1013.3mb 60f 57f
7:50 6ft 14s 10s 2 7 mph 1012.9mb 60f 57f
6:50 6ft 15s 9s 7 9 mph 1012.4mb 60f 57f
5:50 6ft 12s 10s 4 9 mph 1012.3mb 60f 57f
4:50 6ft 15s 10s 2 4 mph 1011.8mb 60f 57f
3:50 6ft 15s 10s 2 4 mph 1011.7mb 60f 57f
2:50 6ft 14s 10s 4 7 mph 1011.7mb 60f 57f
1:50 5.5ft 15s 10s 2 4 mph 1011.9mb 60f 57f
12:50 7ft 12s 10s 2 4 mph 1011.8mb 60f 57f
Qui 06/22 11:50 7ft 15s 10s 4 7 mph 1011.7mb 60f 57f
10:50 7ft 13s 9s 2 4 mph 1011.4mb 60f 57f
9:50 7ft 11s 9s 4 7 mph 1010.9mb 61f 58f
8:50 7ft 12s 9s 4 7 mph 1010.3mb 61f 58f
7:50 6ft 14s 8s 4 9 mph 1010.1mb 61f 58f
6:50 7ft 14s 9s 2 4 mph 1009.7mb 61f 58f
5:50 7ft 11s  -  2 4 mph 1009.5mb 61f 58f
4:50 7ft 13s 9s 4 7 mph 1009.8mb 61f 59f
3:50 6.5ft 11s 9s 4 7 mph 1010.3mb 61f 59f
2:50 7ft 13s 9s 4 7 mph 1010.3mb 61f 59f
1:50 6.5ft 13s 9s 4 7 mph 1010.6mb 61f 58f
12:50 7ft 11s 9s 7 9 mph 1010.5mb 61f 58f
11:50 7ft 13s 9s 7 9 mph 1010.3mb 60f 58f
10:50 8ft 12s 9s 2 2 mph 1010.1mb 60f 57f